Time;durP1;ratioP1;P1;durP2;ratioP2;P2;SDS_P1;SDS_P2;PMS_P1;PMS_P2;Temp;Humidity;BMP_temperature;BMP_pressure;BME280_temperature;BME280_humidity;BME280_pressure;Samples;Min_cycle;Max_cycle;Signal;HPM_P1;HPM_P2
2022/11/25 00:01:23;;;;;;;2.13;1.10;;;25.30;99.90;;;;;;5025838;28;20186;-80
2022/11/25 00:03:56;;;;;;;3.92;1.77;;;25.70;99.90;;;;;;5030968;28;20308;-79
2022/11/25 00:06:28;;;;;;;2.85;1.20;;;26.10;99.90;;;;;;5027436;28;20197;-79
2022/11/25 00:09:02;;;;;;;3.50;1.13;;;26.30;99.90;;;;;;5029307;28;20190;-81
2022/11/25 00:11:36;;;;;;;3.38;1.38;;;26.60;99.90;;;;;;5022463;28;20194;-79
2022/11/25 00:14:07;;;;;;;2.65;1.38;;;26.60;99.90;;;;;;5023347;28;20216;-78
2022/11/25 00:16:44;;;;;;;2.28;1.10;;;26.80;99.90;;;;;;5028018;28;20209;-80
2022/11/25 00:19:15;;;;;;;4.97;1.20;;;26.90;99.90;;;;;;5028931;28;20210;-79
2022/11/25 00:21:47;;;;;;;2.25;1.08;;;27.00;99.90;;;;;;5028098;28;20187;-78
2022/11/25 00:24:21;;;;;;;3.67;1.00;;;27.00;99.90;;;;;;5028745;28;20218;-79
2022/11/25 00:26:54;;;;;;;2.83;1.00;;;26.60;99.90;;;;;;5026590;28;20189;-79
2022/11/25 00:29:25;;;;;;;4.28;0.90;;;26.20;99.90;;;;;;5027711;28;20568;-79
2022/11/25 00:31:56;;;;;;;2.13;1.10;;;25.70;99.90;;;;;;5021871;28;20198;-78
2022/11/25 00:34:28;;;;;;;4.45;1.30;;;25.50;99.90;;;;;;5030195;28;20225;-80
2022/11/25 00:36:59;;;;;;;8.20;3.53;;;25.80;99.90;;;;;;5026294;28;20238;-80
2022/11/25 00:39:33;;;;;;;7.20;3.00;;;26.20;99.90;;;;;;5030889;28;20229;-81
2022/11/25 00:44:52;;;;;;;7.75;3.35;;;25.70;99.90;;;;;;5023150;28;20352;-79
2022/11/25 00:47:23;;;;;;;7.05;3.30;;;25.90;99.90;;;;;;5022886;28;20198;-80
2022/11/25 00:49:56;;;;;;;6.18;3.30;;;26.30;99.90;;;;;;5018498;28;20194;-79
2022/11/25 00:52:28;;;;;;;4.38;2.72;;;26.30;99.90;;;;;;5032981;28;20186;-79
2022/11/25 00:55:04;;;;;;;9.43;3.65;;;26.00;99.90;;;;;;5031631;28;20288;-80
2022/11/25 00:57:36;;;;;;;7.90;3.13;;;25.60;99.90;;;;;;5032926;28;20630;-78
2022/11/25 01:00:08;;;;;;;6.35;3.22;;;25.10;99.90;;;;;;5031447;28;20187;-78
2022/11/25 01:02:39;;;;;;;10.57;4.07;;;24.70;99.90;;;;;;5027392;28;20190;-81
2022/11/25 01:05:11;;;;;;;11.48;3.67;;;24.60;99.90;;;;;;5028291;28;20227;-82
2022/11/25 01:07:43;;;;;;;8.07;3.90;;;24.60;99.90;;;;;;5025953;28;20231;-79
2022/11/25 01:10:17;;;;;;;8.25;3.53;;;24.70;99.90;;;;;;5030891;28;20285;-79
2022/11/25 01:12:51;;;;;;;8.15;3.83;;;25.00;99.90;;;;;;5032026;28;20189;-76
2022/11/25 01:15:22;;;;;;;10.98;3.70;;;25.40;99.90;;;;;;5031456;28;20193;-80
2022/11/25 01:17:53;;;;;;;7.93;3.50;;;25.50;99.90;;;;;;5030999;28;20240;-78
2022/11/25 01:20:25;;;;;;;9.30;4.05;;;25.60;99.90;;;;;;5032103;28;20191;-78
2022/11/25 01:22:56;;;;;;;4.57;3.35;;;25.20;99.90;;;;;;5031687;28;20225;-78
2022/11/25 01:25:30;;;;;;;8.75;3.95;;;25.30;99.90;;;;;;5029873;28;20218;-78
2022/11/25 01:28:02;;;;;;;8.27;3.45;;;25.80;99.90;;;;;;5016053;28;20194;-77
2022/11/25 01:30:33;;;;;;;10.95;3.92;;;25.90;99.90;;;;;;5028928;28;20285;-79
2022/11/25 01:33:05;;;;;;;10.20;4.18;;;25.90;99.90;;;;;;5031545;28;20277;-78
2022/11/25 01:35:40;;;;;;;9.32;4.28;;;25.90;99.90;;;;;;5030502;28;20692;-76
2022/11/25 01:38:11;;;;;;;8.30;4.00;;;26.00;99.90;;;;;;5029552;28;20190;-80
2022/11/25 01:40:46;;;;;;;8.60;4.15;;;26.20;99.90;;;;;;5031687;28;20717;-76
2022/11/25 01:43:17;;;;;;;8.68;4.35;;;26.00;99.90;;;;;;5030324;28;20276;-78
2022/11/25 01:45:49;;;;;;;6.60;4.50;;;26.20;99.90;;;;;;5031626;28;20672;-78
2022/11/25 01:48:24;;;;;;;6.72;3.97;;;25.60;99.90;;;;;;5030423;28;20273;-77
2022/11/25 01:50:56;;;;;;;11.45;4.28;;;25.40;99.90;;;;;;5034875;28;20200;-79
2022/11/25 01:53:27;;;;;;;8.18;4.25;;;25.60;99.90;;;;;;5033759;28;20269;-78
2022/11/25 01:56:06;;;;;;;9.98;4.05;;;25.70;99.90;;;;;;5032355;28;20194;-78
2022/11/25 01:58:40;;;;;;;9.32;4.15;;;25.60;99.90;;;;;;5035010;28;20186;-78
2022/11/25 02:01:11;;;;;;;5.70;3.58;;;25.70;99.90;;;;;;5030120;28;20586;-77
2022/11/25 02:03:48;;;;;;;5.88;3.33;;;25.70;99.90;;;;;;5034746;28;20210;-76
2022/11/25 02:06:24;;;;;;;8.10;3.63;;;25.70;99.90;;;;;;5034847;28;20705;-76
2022/11/25 02:08:59;;;;;;;6.53;3.47;;;25.50;99.90;;;;;;5032117;28;20194;-77
2022/11/25 02:11:35;;;;;;;7.07;3.13;;;25.50;99.90;;;;;;5028015;28;20204;-77
2022/11/25 02:14:07;;;;;;;12.60;3.55;;;25.80;99.90;;;;;;5033757;28;20195;-77
2022/11/25 02:16:38;;;;;;;9.00;3.20;;;25.90;99.90;;;;;;5033206;28;20667;-78
2022/11/25 02:19:18;;;;;;;8.10;3.53;;;25.80;99.90;;;;;;5034321;28;20190;-76
2022/11/25 02:21:57;;;;;;;7.40;3.30;;;25.80;99.90;;;;;;5034282;28;20665;-78
2022/11/25 02:24:32;;;;;;;5.55;3.20;;;25.70;99.90;;;;;;5026514;28;20214;-79
2022/11/25 02:27:07;;;;;;;6.80;3.30;;;25.60;99.90;;;;;;5023973;28;20201;-77
2022/11/25 02:29:39;;;;;;;8.20;3.10;;;25.40;99.90;;;;;;5032979;28;20200;-78
2022/11/25 02:32:10;;;;;;;7.97;3.35;;;25.40;99.90;;;;;;5033293;28;20194;-76
2022/11/25 02:34:50;;;;;;;4.43;2.70;;;25.40;99.90;;;;;;5034699;28;20304;-78
2022/11/25 02:37:23;;;;;;;3.85;2.65;;;25.40;99.90;;;;;;5026780;28;20233;-77
2022/11/25 02:39:56;;;;;;;5.65;3.00;;;25.30;99.90;;;;;;5034261;28;20206;-78
2022/11/25 02:42:32;;;;;;;6.75;2.85;;;25.30;99.90;;;;;;5032600;28;20190;-77
2022/11/25 02:45:06;;;;;;;7.05;3.10;;;25.20;99.90;;;;;;5028541;28;20224;-77
2022/11/25 02:47:36;;;;;;;9.70;3.13;;;25.30;99.90;;;;;;5032347;28;20271;-77
2022/11/25 02:50:09;;;;;;;9.07;2.95;;;25.40;99.90;;;;;;5033662;28;20276;-78
2022/11/25 02:52:42;;;;;;;7.50;3.30;;;25.30;99.90;;;;;;5034832;28;20186;-78
2022/11/25 02:55:13;;;;;;;7.22;3.20;;;25.30;99.90;;;;;;5036233;28;20190;-80
2022/11/25 02:57:48;;;;;;;9.40;3.42;;;25.20;99.90;;;;;;5037219;28;20340;-81
2022/11/25 03:00:20;;;;;;;4.82;2.97;;;25.20;99.90;;;;;;5033004;28;20216;-79
2022/11/25 03:02:53;;;;;;;5.63;2.92;;;25.30;99.90;;;;;;5028348;28;20202;-81
2022/11/25 03:05:25;;;;;;;5.57;2.80;;;25.00;99.90;;;;;;5029705;28;20579;-79
2022/11/25 03:07:55;;;;;;;7.20;2.97;;;25.00;99.90;;;;;;5033511;28;20198;-81
2022/11/25 03:10:27;;;;;;;6.30;3.10;;;24.90;99.90;;;;;;5033112;28;20190;-80
2022/11/25 03:13:03;;;;;;;7.53;3.03;;;25.00;99.90;;;;;;5030952;28;20229;-79
2022/11/25 03:15:35;;;;;;;6.82;2.90;;;25.00;99.90;;;;;;5033863;28;20245;-80
2022/11/25 03:18:07;;;;;;;7.38;3.20;;;25.20;99.90;;;;;;5034152;28;20190;-80
2022/11/25 03:20:39;;;;;;;5.38;2.88;;;25.40;99.90;;;;;;5024665;28;20209;-79
2022/11/25 03:23:10;;;;;;;5.70;2.70;;;25.30;99.90;;;;;;5033654;28;20205;-82
2022/11/25 03:25:41;;;;;;;5.72;2.95;;;25.20;99.90;;;;;;5032542;28;20230;-79
2022/11/25 03:28:16;;;;;;;6.40;3.30;;;25.10;99.90;;;;;;5033859;28;20722;-79
2022/11/25 03:30:47;;;;;;;7.65;3.20;;;25.00;99.90;;;;;;5029275;28;20305;-79
2022/11/25 03:33:18;;;;;;;7.50;3.10;;;24.90;99.90;;;;;;5033802;28;20198;-79
2022/11/25 03:35:51;;;;;;;4.88;2.80;;;24.80;99.90;;;;;;5032795;28;20575;-78
2022/11/25 03:38:22;;;;;;;4.88;2.92;;;24.90;99.90;;;;;;5030373;28;20202;-79
2022/11/25 03:40:53;;;;;;;7.57;3.25;;;24.70;99.90;;;;;;5019320;28;20291;-81
2022/11/25 03:43:29;;;;;;;6.82;3.00;;;24.70;99.90;;;;;;5029839;28;20190;-78
2022/11/25 03:46:01;;;;;;;7.88;3.10;;;24.80;99.90;;;;;;5027949;28;20239;-79
2022/11/25 03:48:32;;;;;;;7.40;3.00;;;24.60;99.90;;;;;;5032590;28;20187;-79
2022/11/25 03:51:03;;;;;;;8.68;2.85;;;24.30;99.90;;;;;;5029686;28;20200;-79
2022/11/25 03:53:35;;;;;;;8.95;2.92;;;24.40;99.90;;;;;;5030466;28;20187;-78
2022/11/25 03:56:06;;;;;;;5.95;3.00;;;24.30;99.90;;;;;;5026672;28;20273;-80
2022/11/25 03:58:41;;;;;;;5.13;2.72;;;24.30;99.90;;;;;;5024325;28;20190;-80
2022/11/25 04:01:12;;;;;;;5.10;2.63;;;24.40;99.90;;;;;;5021084;28;20202;-79
2022/11/25 04:03:43;;;;;;;5.50;3.00;;;24.40;99.90;;;;;;5026916;28;20190;-79
2022/11/25 04:06:14;;;;;;;5.32;2.90;;;24.60;99.90;;;;;;5031447;28;20229;-79
2022/11/25 04:08:47;;;;;;;5.95;2.97;;;24.50;99.90;;;;;;5023696;28;20194;-79
2022/11/25 04:11:18;;;;;;;6.88;2.70;;;24.30;99.90;;;;;;5019960;28;20282;-80
2022/11/25 04:13:50;;;;;;;5.38;2.70;;;24.30;99.90;;;;;;5029855;28;20198;-78
2022/11/25 04:16:27;;;;;;;6.55;2.83;;;24.20;99.90;;;;;;5021399;28;20202;-82
2022/11/25 04:18:58;;;;;;;5.78;3.10;;;24.10;99.90;;;;;;5024946;28;20199;-78
2022/11/25 04:21:28;;;;;;;6.07;2.90;;;24.00;99.90;;;;;;5025389;28;20883;-78
2022/11/25 04:24:00;;;;;;;5.68;2.70;;;24.00;99.90;;;;;;5028030;28;20560;-78
2022/11/25 04:26:31;;;;;;;6.80;3.08;;;24.00;99.90;;;;;;5029716;28;20205;-76
2022/11/25 04:29:06;;;;;;;7.43;3.45;;;23.90;99.90;;;;;;5028486;28;20297;-81
2022/11/25 04:31:38;;;;;;;4.95;2.70;;;24.00;99.90;;;;;;5031280;28;20205;-78
2022/11/25 04:34:09;;;;;;;6.18;2.75;;;24.00;99.90;;;;;;5029058;28;20205;-77
2022/11/25 04:36:40;;;;;;;7.47;2.97;;;24.00;99.90;;;;;;5030132;28;20233;-78
2022/11/25 04:39:12;;;;;;;4.97;2.83;;;24.00;99.90;;;;;;5023483;28;20293;-78
2022/11/25 04:41:43;;;;;;;6.45;2.78;;;24.10;99.90;;;;;;5032162;28;20289;-77
2022/11/25 04:44:17;;;;;;;5.63;3.25;;;24.20;99.90;;;;;;5031349;28;20190;-77
2022/11/25 04:46:49;;;;;;;6.25;2.83;;;24.10;99.90;;;;;;5032537;28;20269;-79
2022/11/25 04:49:21;;;;;;;4.88;2.80;;;24.20;99.90;;;;;;5029990;28;20632;-77
2022/11/25 04:51:52;;;;;;;6.85;3.08;;;24.30;99.90;;;;;;5029528;28;20194;-77
2022/11/25 04:54:23;;;;;;;7.75;3.10;;;24.20;99.90;;;;;;5022192;28;20285;-78
2022/11/25 04:56:56;;;;;;;5.22;2.72;;;24.30;99.90;;;;;;5024749;28;20200;-78
2022/11/25 04:59:41;;;;;;;7.90;3.03;;;24.20;99.90;;;;;;5029051;28;20190;-76
2022/11/25 05:02:16;;;;;;;6.00;2.63;;;24.30;99.90;;;;;;5029547;28;20190;-77
2022/11/25 05:04:48;;;;;;;6.65;2.50;;;24.30;99.90;;;;;;5027561;28;20214;-76
2022/11/25 05:07:21;;;;;;;7.53;2.70;;;24.20;99.90;;;;;;5028748;28;20277;-76
2022/11/25 05:09:52;;;;;;;5.60;2.40;;;24.20;99.90;;;;;;5025586;28;20209;-80
2022/11/25 05:12:25;;;;;;;3.67;2.40;;;24.10;99.90;;;;;;5022720;28;20199;-76
2022/11/25 05:15:00;;;;;;;4.95;2.47;;;24.00;99.90;;;;;;5027921;28;20213;-77
2022/11/25 05:17:33;;;;;;;6.63;2.60;;;24.10;99.90;;;;;;5028383;28;20281;-77
2022/11/25 05:20:05;;;;;;;4.65;2.78;;;24.10;99.90;;;;;;5027620;28;20208;-76
2022/11/25 05:22:38;;;;;;;4.65;2.63;;;23.90;99.90;;;;;;5028497;28;20297;-78
2022/11/25 05:25:09;;;;;;;5.32;2.53;;;23.70;99.90;;;;;;5026978;28;20221;-78
2022/11/25 05:27:40;;;;;;;4.97;2.72;;;23.60;99.90;;;;;;5033677;28;20249;-76
2022/11/25 05:30:16;;;;;;;6.15;2.47;;;23.70;99.90;;;;;;5035284;28;20201;-76
2022/11/25 05:32:48;;;;;;;5.57;2.40;;;23.70;99.90;;;;;;5025171;28;20201;-76
2022/11/25 05:35:20;;;;;;;4.82;2.15;;;23.70;99.90;;;;;;5034481;28;20271;-75
2022/11/25 05:37:52;;;;;;;4.47;2.20;;;23.60;99.90;;;;;;5039287;28;20198;-77
2022/11/25 05:40:24;;;;;;;6.03;2.25;;;23.60;99.90;;;;;;5017455;28;20190;-75
2022/11/25 05:42:55;;;;;;;6.07;2.33;;;23.50;99.90;;;;;;5031714;28;20202;-76
2022/11/25 05:45:29;;;;;;;6.13;2.15;;;23.50;99.90;;;;;;5038621;28;20581;-76
2022/11/25 05:48:01;;;;;;;4.78;2.35;;;23.50;99.90;;;;;;5045094;28;20194;-76
2022/11/25 05:50:32;;;;;;;4.30;2.40;;;23.30;99.90;;;;;;5015341;28;20253;-74
2022/11/25 05:53:04;;;;;;;4.10;2.40;;;23.30;99.90;;;;;;5031916;28;20218;-77
2022/11/25 05:55:35;;;;;;;4.03;2.17;;;23.30;99.90;;;;;;5012548;28;20286;-76
2022/11/25 05:58:07;;;;;;;4.35;2.28;;;23.40;99.90;;;;;;5037488;28;20198;-78
2022/11/25 06:00:41;;;;;;;6.03;2.30;;;23.40;99.90;;;;;;5031704;28;20195;-76
2022/11/25 06:03:12;;;;;;;5.07;2.47;;;23.40;99.90;;;;;;5039245;28;20314;-75
2022/11/25 06:05:43;;;;;;;6.15;2.20;;;23.40;99.90;;;;;;5031516;28;20215;-75
2022/11/25 06:08:15;;;;;;;4.05;2.38;;;23.30;99.90;;;;;;5030083;28;20678;-75
2022/11/25 06:10:46;;;;;;;5.70;1.95;;;23.30;99.90;;;;;;5028305;28;20198;-76
2022/11/25 06:13:18;;;;;;;5.60;2.25;;;23.30;99.90;;;;;;5011863;28;20277;-75
2022/11/25 06:15:52;;;;;;;4.82;2.50;;;23.30;99.90;;;;;;5018441;28;20194;-75
2022/11/25 06:18:24;;;;;;;4.20;2.30;;;23.30;99.90;;;;;;5031887;28;20224;-75
2022/11/25 06:21:00;;;;;;;4.78;2.03;;;23.30;99.90;;;;;;5032382;28;20263;-76
2022/11/25 06:23:31;;;;;;;3.88;2.22;;;23.30;99.90;;;;;;5027983;28;20243;-76
2022/11/25 06:26:07;;;;;;;4.60;2.40;;;23.20;99.90;;;;;;5020225;28;20268;-75
2022/11/25 06:28:39;;;;;;;4.50;2.38;;;23.20;99.90;;;;;;5029220;28;20226;-75
2022/11/25 06:31:15;;;;;;;5.32;2.40;;;23.00;99.90;;;;;;5028016;28;20286;-75
2022/11/25 06:33:50;;;;;;;4.30;2.50;;;23.10;99.90;;;;;;5038337;28;20194;-76
2022/11/25 06:36:21;;;;;;;4.53;2.70;;;23.10;99.90;;;;;;5037243;28;20264;-76
2022/11/25 06:38:54;;;;;;;3.95;2.40;;;23.20;99.90;;;;;;5027037;28;20294;-76
2022/11/25 06:41:25;;;;;;;3.53;2.60;;;23.20;99.90;;;;;;5033148;28;20202;-76
2022/11/25 06:43:57;;;;;;;5.68;2.17;;;23.00;99.90;;;;;;5031605;28;20197;-75
2022/11/25 06:46:31;;;;;;;6.57;2.30;;;22.90;99.90;;;;;;5032555;28;20218;-75
2022/11/25 06:49:03;;;;;;;3.90;2.50;;;22.90;99.90;;;;;;5030186;28;20208;-76
2022/11/25 06:51:34;;;;;;;4.55;2.40;;;22.80;99.90;;;;;;5030982;28;20191;-76
2022/11/25 06:54:07;;;;;;;5.05;2.38;;;22.80;99.90;;;;;;5030440;28;20651;-75
2022/11/25 06:56:38;;;;;;;4.15;2.15;;;22.70;99.90;;;;;;5030511;28;20670;-75
2022/11/25 06:59:10;;;;;;;6.13;2.63;;;22.80;99.90;;;;;;5034194;28;20277;-76
2022/11/25 07:01:44;;;;;;;6.28;2.22;;;22.70;99.90;;;;;;5027746;28;20293;-75
2022/11/25 07:04:16;;;;;;;4.45;2.40;;;22.70;99.90;;;;;;5033160;28;20207;-75
2022/11/25 07:06:47;;;;;;;7.15;2.60;;;22.80;99.90;;;;;;5026458;28;20646;-76
2022/11/25 07:09:18;;;;;;;6.00;2.33;;;22.70;99.90;;;;;;5034565;28;20274;-76
2022/11/25 07:11:50;;;;;;;6.35;2.30;;;22.70;99.90;;;;;;5032732;28;20202;-79
2022/11/25 07:14:21;;;;;;;4.18;2.08;;;22.70;99.90;;;;;;5026808;28;20281;-79
2022/11/25 07:16:56;;;;;;;5.13;2.47;;;22.50;99.90;;;;;;5034285;28;20208;-80
2022/11/25 07:19:32;;;;;;;4.93;2.13;;;22.50;99.90;;;;;;5031671;28;20280;-79
2022/11/25 07:22:03;;;;;;;5.38;2.40;;;22.40;99.90;;;;;;5032544;28;20197;-80
2022/11/25 07:24:35;;;;;;;4.38;2.25;;;22.40;99.90;;;;;;5029018;28;20198;-80
2022/11/25 07:27:07;;;;;;;5.47;2.20;;;22.40;99.90;;;;;;5026834;28;20222;-79
2022/11/25 07:29:38;;;;;;;3.05;1.80;;;22.30;99.90;;;;;;5033900;28;20221;-80
2022/11/25 07:32:12;;;;;;;3.97;1.98;;;22.30;99.90;;;;;;5026557;28;20199;-81
2022/11/25 07:34:43;;;;;;;4.28;2.17;;;22.20;99.90;;;;;;5031399;28;20217;-78
2022/11/25 07:37:14;;;;;;;7.47;2.05;;;22.20;99.90;;;;;;5038317;28;20324;-77
2022/11/25 07:39:46;;;;;;;3.33;2.17;;;22.20;99.90;;;;;;5027471;28;20224;-76
2022/11/25 07:42:17;;;;;;;8.13;2.50;;;22.20;99.90;;;;;;5025285;28;20191;-77
2022/11/25 07:44:48;;;;;;;8.60;2.35;;;22.30;99.90;;;;;;5038260;28;20290;-77
2022/11/25 07:47:23;;;;;;;6.85;2.25;;;22.30;99.90;;;;;;5040323;28;20300;-80
2022/11/25 07:49:55;;;;;;;5.20;2.50;;;22.30;99.90;;;;;;5036265;28;20210;-80
2022/11/25 07:52:26;;;;;;;4.90;2.60;;;22.20;99.90;;;;;;5034852;28;20282;-79
2022/11/25 07:54:58;;;;;;;4.88;2.30;;;22.30;99.90;;;;;;5015917;28;20541;-79
2022/11/25 07:57:29;;;;;;;3.97;2.25;;;22.30;99.90;;;;;;5025257;28;20641;-79
2022/11/25 08:00:00;;;;;;;6.18;3.00;;;22.10;99.90;;;;;;5029738;28;20285;-79
2022/11/25 08:02:35;;;;;;;7.15;2.38;;;22.10;99.90;;;;;;5016894;28;20729;-79
2022/11/25 08:05:06;;;;;;;5.20;2.10;;;22.10;99.90;;;;;;5039927;28;20197;-78
2022/11/25 08:07:37;;;;;;;6.60;2.10;;;22.10;99.90;;;;;;5043538;28;20227;-79
2022/11/25 08:10:09;;;;;;;7.15;2.35;;;22.10;99.90;;;;;;5035274;28;20204;-79
2022/11/25 08:12:41;;;;;;;5.28;2.30;;;22.00;99.90;;;;;;5038525;28;20671;-78
2022/11/25 08:15:13;;;;;;;5.43;2.20;;;21.90;99.90;;;;;;5038409;28;20205;-80
2022/11/25 08:17:49;;;;;;;5.03;2.30;;;21.70;99.90;;;;;;5030494;28;20198;-80
2022/11/25 08:20:20;;;;;;;5.80;2.35;;;21.50;99.90;;;;;;5023768;28;20233;-78
2022/11/25 08:22:51;;;;;;;5.80;2.08;;;21.40;99.90;;;;;;5033040;28;20233;-79
2022/11/25 08:25:22;;;;;;;7.55;2.50;;;21.30;99.90;;;;;;5022538;28;20206;-79
2022/11/25 08:27:53;;;;;;;4.75;2.13;;;21.30;99.90;;;;;;5032002;28;20194;-77
2022/11/25 08:30:24;;;;;;;6.07;2.45;;;21.20;99.90;;;;;;5022736;28;20200;-79
2022/11/25 08:32:59;;;;;;;4.95;2.25;;;21.20;99.90;;;;;;5025856;28;20213;-79
2022/11/25 08:35:30;;;;;;;3.83;2.40;;;21.10;99.90;;;;;;5031150;28;20225;-79
2022/11/25 08:38:02;;;;;;;7.78;2.60;;;21.10;99.90;;;;;;5029944;28;20389;-77
2022/11/25 08:40:34;;;;;;;5.85;2.45;;;21.10;99.90;;;;;;5023707;28;20196;-80
2022/11/25 08:43:06;;;;;;;3.88;2.40;;;21.00;99.90;;;;;;5029380;28;20238;-78
2022/11/25 08:45:37;;;;;;;7.60;2.53;;;20.90;99.90;;;;;;5026091;28;20203;-79
2022/11/25 08:48:12;;;;;;;6.03;2.20;;;20.90;99.90;;;;;;5022841;28;20281;-80
2022/11/25 08:50:44;;;;;;;4.88;2.40;;;20.80;99.90;;;;;;5025319;28;20194;-79
2022/11/25 08:53:15;;;;;;;4.93;2.42;;;20.80;99.90;;;;;;5025472;28;20202;-80
2022/11/25 08:55:47;;;;;;;6.80;2.80;;;20.80;99.90;;;;;;5032106;28;20277;-78
2022/11/25 08:58:18;;;;;;;4.68;2.38;;;20.80;99.90;;;;;;5029201;28;20654;-77
2022/11/25 09:00:49;;;;;;;3.78;2.13;;;20.70;99.90;;;;;;5025016;28;20277;-78
2022/11/25 09:03:24;;;;;;;4.28;2.22;;;20.70;99.90;;;;;;5030699;28;20187;-79
2022/11/25 09:05:55;;;;;;;4.93;2.72;;;20.70;99.90;;;;;;5031571;28;20714;-79
2022/11/25 09:08:27;;;;;;;6.15;2.60;;;20.60;99.90;;;;;;5031068;28;20730;-79
2022/11/25 09:10:58;;;;;;;4.82;2.30;;;20.60;99.90;;;;;;5024681;28;20202;-78
2022/11/25 09:13:29;;;;;;;5.15;2.33;;;20.60;99.90;;;;;;5027105;28;20658;-78
2022/11/25 09:16:00;;;;;;;5.88;2.65;;;20.60;99.90;;;;;;5023919;28;20216;-79
2022/11/25 09:18:35;;;;;;;4.22;2.47;;;20.60;99.90;;;;;;5026942;28;20467;-79
2022/11/25 09:21:12;;;;;;;6.90;2.28;;;20.50;99.90;;;;;;5027944;28;20687;-79
2022/11/25 09:23:43;;;;;;;5.60;2.40;;;20.50;99.90;;;;;;5027150;28;20204;-80
2022/11/25 09:26:23;;;;;;;7.15;2.78;;;20.50;99.90;;;;;;5022907;28;20226;-79
2022/11/25 09:28:55;;;;;;;5.97;2.63;;;20.40;99.90;;;;;;5029714;28;20699;-79
2022/11/25 09:31:26;;;;;;;6.18;2.55;;;20.40;99.90;;;;;;5018732;28;20195;-79
2022/11/25 09:34:01;;;;;;;3.65;2.05;;;20.40;99.90;;;;;;5027511;28;20293;-79
2022/11/25 09:36:33;;;;;;;3.42;2.20;;;20.30;99.90;;;;;;5030631;28;20229;-79
2022/11/25 09:39:04;;;;;;;5.47;2.60;;;20.30;99.90;;;;;;5031137;28;20273;-79
2022/11/25 09:47:42;;;;;;;7.22;2.78;;;20.20;99.90;;;;;;5030067;28;20272;-78
2022/11/25 09:50:27;;;;;;;5.72;2.80;;;20.10;99.90;;;;;;5028846;28;20278;-79
2022/11/25 09:53:06;;;;;;;4.38;2.53;;;20.10;99.90;;;;;;5031355;28;20708;-78
2022/11/25 09:55:42;;;;;;;6.70;2.70;;;20.10;99.90;;;;;;5027500;28;20202;-78
2022/11/25 09:58:23;;;;;;;3.22;2.17;;;20.10;99.90;;;;;;5030500;28;20206;-79
2022/11/25 10:00:56;;;;;;;8.07;2.75;;;20.10;99.90;;;;;;5028892;28;20294;-77
2022/11/25 10:03:37;;;;;;;4.28;2.20;;;20.10;99.90;;;;;;5031520;28;20197;-78
2022/11/25 10:06:17;;;;;;;6.40;2.90;;;20.10;99.90;;;;;;5029399;28;20214;-78
2022/11/25 10:08:50;;;;;;;6.68;2.70;;;20.00;99.90;;;;;;5030237;28;20233;-79
2022/11/25 10:11:30;;;;;;;6.18;2.90;;;20.00;99.90;;;;;;5036037;28;20192;-79
2022/11/25 10:14:09;;;;;;;5.13;2.65;;;20.00;99.90;;;;;;5026448;28;20194;-79
2022/11/25 10:16:50;;;;;;;6.63;2.85;;;20.00;99.90;;;;;;5031710;28;20675;-79
2022/11/25 10:19:32;;;;;;;3.83;2.50;;;20.00;99.90;;;;;;5015307;28;20198;-80
2022/11/25 10:22:19;;;;;;;5.65;2.80;;;20.00;99.90;;;;;;5028112;28;20601;-80
2022/11/25 10:24:51;;;;;;;4.38;2.45;;;20.00;99.90;;;;;;5033313;28;20245;-80
2022/11/25 10:27:29;;;;;;;4.63;2.47;;;20.00;99.90;;;;;;5026137;28;20298;-80
2022/11/25 10:30:09;;;;;;;5.97;2.42;;;20.00;99.90;;;;;;5030861;28;20186;-79
2022/11/25 10:32:45;;;;;;;4.32;2.15;;;19.90;99.90;;;;;;5029124;28;20204;-79
2022/11/25 10:35:25;;;;;;;4.60;2.30;;;20.00;99.90;;;;;;5023841;28;20224;-80
2022/11/25 10:38:03;;;;;;;5.82;2.60;;;19.90;99.90;;;;;;5032159;28;20707;-78
2022/11/25 10:40:34;;;;;;;4.85;2.42;;;19.90;99.90;;;;;;5027672;28;20194;-80
2022/11/25 10:43:13;;;;;;;6.10;3.10;;;19.90;99.90;;;;;;5034735;28;20550;-80
2022/11/25 10:45:52;;;;;;;7.03;3.00;;;19.90;99.90;;;;;;5033251;28;20657;-78
2022/11/25 10:48:56;;;;;;;4.85;2.78;;;19.90;99.90;;;;;;5032847;28;20220;-76
2022/11/25 10:51:38;;;;;;;7.45;2.92;;;20.00;99.90;;;;;;5032747;28;20645;-76
2022/11/25 10:54:27;;;;;;;7.32;2.90;;;20.00;99.90;;;;;;5032812;28;20187;-76
2022/11/25 10:57:00;;;;;;;7.60;3.00;;;20.00;99.90;;;;;;5030919;28;20694;-77
2022/11/25 10:59:33;;;;;;;7.35;3.10;;;20.00;99.90;;;;;;5034798;28;20703;-76
2022/11/25 11:02:28;;;;;;;7.43;2.92;;;20.00;99.90;;;;;;5025935;28;20205;-76
2022/11/25 11:05:03;;;;;;;7.10;2.88;;;20.00;99.90;;;;;;5028491;28;20207;-76
2022/11/25 11:07:35;;;;;;;7.28;3.30;;;20.00;99.90;;;;;;5025517;28;20221;-76
2022/11/25 11:10:36;;;;;;;7.47;3.08;;;20.00;99.90;;;;;;5031605;28;20208;-77
2022/11/25 11:13:08;;;;;;;5.32;2.95;;;19.90;99.90;;;;;;5029646;28;20209;-76
2022/11/25 11:15:49;;;;;;;5.60;2.95;;;19.90;99.90;;;;;;5029443;28;20289;-77
2022/11/25 11:18:28;;;;;;;8.25;3.10;;;19.90;99.90;;;;;;5027040;28;20209;-76
2022/11/25 11:21:00;;;;;;;5.20;2.63;;;19.90;99.90;;;;;;5024582;28;20202;-77
2022/11/25 11:23:32;;;;;;;6.90;3.17;;;19.90;99.90;;;;;;5029839;28;20200;-77
2022/11/25 11:26:08;;;;;;;8.25;3.00;;;19.90;99.90;;;;;;5033752;28;20201;-77
2022/11/25 11:28:43;;;;;;;5.07;2.75;;;19.90;99.90;;;;;;5031689;28;20190;-77
2022/11/25 11:31:23;;;;;;;7.32;2.90;;;19.90;99.90;;;;;;5032523;28;20198;-77
2022/11/25 11:34:00;;;;;;;6.28;3.10;;;19.90;99.90;;;;;;5033162;28;20198;-77
2022/11/25 11:36:52;;;;;;;4.47;2.42;;;19.90;99.90;;;;;;5035692;28;20316;-77
2022/11/25 11:39:44;;;;;;;7.50;2.88;;;19.90;99.90;;;;;;5031929;28;20201;-76
2022/11/25 11:42:28;;;;;;;6.55;2.58;;;19.90;99.90;;;;;;5035449;28;20653;-77
2022/11/25 11:45:13;;;;;;;5.97;2.75;;;19.90;99.90;;;;;;5039381;28;20197;-77
2022/11/25 11:47:58;;;;;;;6.00;2.70;;;19.90;99.90;;;;;;5035792;28;20683;-77
2022/11/25 11:50:33;;;;;;;7.68;2.70;;;20.00;99.90;;;;;;5024328;28;20213;-77
2022/11/25 11:53:14;;;;;;;5.40;2.80;;;19.90;99.90;;;;;;5038593;28;20248;-76
2022/11/25 11:56:08;;;;;;;6.38;2.60;;;19.90;99.90;;;;;;5036406;28;20278;-77
2022/11/25 11:58:58;;;;;;;5.63;2.47;;;19.90;99.90;;;;;;5028181;28;20293;-79
2022/11/25 12:01:42;;;;;;;30.40;20.65;;;19.90;99.90;;;;;;5036484;28;20269;-76
2022/11/25 12:04:21;;;;;;;19.30;13.13;;;20.00;99.90;;;;;;5038620;28;20470;-77
2022/11/25 12:07:02;;;;;;;37.05;22.20;;;20.00;99.90;;;;;;5032126;28;20296;-76
2022/11/25 12:09:39;;;;;;;9.60;4.63;;;20.00;99.90;;;;;;5038553;28;20195;-76
2022/11/25 12:12:17;;;;;;;11.23;6.60;;;20.00;99.90;;;;;;5039246;28;20252;-79
2022/11/25 12:14:55;;;;;;;9.18;2.92;;;20.00;99.90;;;;;;5035547;28;20193;-77
2022/11/25 12:17:34;;;;;;;6.65;2.90;;;20.00;99.90;;;;;;5025541;28;20314;-77
2022/11/25 12:20:16;;;;;;;5.35;2.50;;;19.90;99.90;;;;;;5037192;28;20292;-77
2022/11/25 12:22:53;;;;;;;8.88;3.28;;;19.90;99.90;;;;;;5025705;28;20276;-76
2022/11/25 12:25:27;;;;;;;6.75;2.63;;;19.90;99.90;;;;;;5027126;28;20284;-79
2022/11/25 12:28:03;;;;;;;7.15;2.60;;;19.90;99.90;;;;;;5013127;28;20577;-78
2022/11/25 12:30:39;;;;;;;7.28;2.40;;;19.90;99.90;;;;;;5034318;28;20736;-80
2022/11/25 12:33:16;;;;;;;6.97;2.90;;;19.90;99.90;;;;;;5032408;28;20641;-80
2022/11/25 12:35:59;;;;;;;55.95;32.25;;;19.80;99.90;;;;;;5040493;28;20244;-77
2022/11/25 12:38:38;;;;;;;6.18;3.25;;;19.80;99.90;;;;;;5034994;28;20186;-78
2022/11/25 12:41:19;;;;;;;4.90;2.70;;;19.80;99.90;;;;;;5023661;28;20203;-81
2022/11/25 12:43:53;;;;;;;6.00;2.38;;;19.80;99.90;;;;;;5031399;28;20618;-80
2022/11/25 12:46:32;;;;;;;5.50;2.50;;;19.80;99.90;;;;;;5036694;28;20193;-78
2022/11/25 12:49:04;;;;;;;4.93;2.28;;;19.80;99.90;;;;;;5038596;28;20197;-77
2022/11/25 12:51:54;;;;;;;5.55;2.45;;;19.80;99.90;;;;;;5041381;28;20277;-79
2022/11/25 12:54:38;;;;;;;7.28;2.33;;;19.80;99.90;;;;;;5033242;28;20234;-78
2022/11/25 12:57:31;;;;;;;6.20;2.60;;;19.80;99.90;;;;;;5035643;28;20187;-81
2022/11/25 13:00:12;;;;;;;4.53;2.28;;;19.80;99.90;;;;;;5028652;28;20309;-80
2022/11/25 13:03:11;;;;;;;6.90;2.63;;;19.70;99.90;;;;;;5037907;28;20190;-78
2022/11/25 13:06:11;;;;;;;6.00;2.40;;;19.70;99.90;;;;;;5038527;28;20272;-80
2022/11/25 13:08:58;;;;;;;4.82;2.42;;;19.70;99.90;;;;;;5030359;28;20222;-77
2022/11/25 13:11:59;;;;;;;6.43;2.70;;;19.70;99.90;;;;;;5035691;28;20285;-77
2022/11/25 13:14:41;;;;;;;3.75;2.30;;;19.70;99.90;;;;;;5034346;28;20235;-79
2022/11/25 13:17:14;;;;;;;5.70;2.53;;;19.70;99.90;;;;;;5028535;28;20210;-80
2022/11/25 13:19:49;;;;;;;5.30;2.65;;;19.70;99.90;;;;;;5031439;28;20202;-80
2022/11/25 13:22:31;;;;;;;5.65;2.45;;;19.60;99.90;;;;;;5034365;28;20701;-80
2022/11/25 13:25:02;;;;;;;4.43;2.60;;;19.60;99.90;;;;;;5038352;28;20194;-80
2022/11/25 13:27:34;;;;;;;7.18;2.60;;;19.60;99.90;;;;;;5040819;28;20301;-80
2022/11/25 13:30:06;;;;;;;5.35;2.75;;;19.60;99.90;;;;;;5033187;28;20642;-80
2022/11/25 13:32:44;;;;;;;7.78;2.88;;;19.60;99.90;;;;;;5033801;28;20186;-80